19°C Temp
12°C Dewpoint
64% Humidity
Temperature
16 KM/H
10 MPH
9 KTS
80°
Due East

Wind Speed
Clear
Conditions
Pressure 1016.92 (hPa) - 30.03 (in)
Visibility 6.2 (mi) - 10.0 (km)

Current Conditions
SAEZ
Location 120km(km)
Metar :SAEZ 202300Z 08009KT CAVOK 19/12 Q1017 NOSIG
Wed 20th October 20:00 pm

Airport
  Metar Aviation API Data Provided by https://www.checkwx.com/ PHP scripts by weather34.com ©2021